createdAt,value
2018-07-11T00:00:23.809Z,46.00
2018-07-11T00:01:28.735Z,46.00
2018-07-11T00:02:33.479Z,46.00
2018-07-11T00:03:38.360Z,46.00
2018-07-11T00:04:43.085Z,46.00
2018-07-11T00:05:50.599Z,46.10
2018-07-11T00:06:55.563Z,46.00
2018-07-11T00:08:00.502Z,46.10
2018-07-11T00:09:05.533Z,46.10
2018-07-11T00:10:10.472Z,46.10
2018-07-11T00:11:15.396Z,46.10
2018-07-11T00:12:20.905Z,46.10
2018-07-11T00:13:26.444Z,46.10
2018-07-11T00:14:31.168Z,46.10
2018-07-11T00:15:35.988Z,46.10
2018-07-11T00:16:41.553Z,46.10
2018-07-11T00:17:46.489Z,46.10
2018-07-11T00:18:51.375Z,46.10
2018-07-11T00:19:56.243Z,46.20
2018-07-11T00:21:01.072Z,46.10
2018-07-11T00:22:05.966Z,46.10
2018-07-11T00:23:10.878Z,46.10
2018-07-11T00:24:15.673Z,46.20
2018-07-11T00:25:21.163Z,46.20
2018-07-11T00:26:25.955Z,46.20
2018-07-11T00:27:30.872Z,46.20
2018-07-11T00:28:35.596Z,46.20
2018-07-11T00:29:40.508Z,46.20
2018-07-11T00:30:45.465Z,46.20
2018-07-11T00:31:50.926Z,47.00
2018-07-11T00:32:55.847Z,46.20
2018-07-11T00:34:00.588Z,46.20
2018-07-11T00:35:06.022Z,46.20
2018-07-11T00:36:11.548Z,46.20
2018-07-11T00:37:16.496Z,46.90
2018-07-11T00:38:21.323Z,46.30
2018-07-11T00:39:26.137Z,46.20
2018-07-11T00:40:30.883Z,46.20
2018-07-11T00:41:35.665Z,46.20
2018-07-11T00:42:40.459Z,46.30
2018-07-11T00:43:45.910Z,46.30
2018-07-11T00:44:50.774Z,46.30
2018-07-11T00:45:55.681Z,46.30
2018-07-11T00:47:00.465Z,46.30
2018-07-11T00:48:05.371Z,46.30
2018-07-11T00:49:10.095Z,46.40
2018-07-11T00:50:15.161Z,46.30
2018-07-11T00:51:20.010Z,46.30
2018-07-11T00:52:24.858Z,46.30
2018-07-11T00:53:29.617Z,46.30
2018-07-11T00:54:34.460Z,46.30
2018-07-11T00:55:39.328Z,46.40
2018-07-11T00:56:44.231Z,46.40
2018-07-11T00:57:49.598Z,46.40
2018-07-11T00:58:54.457Z,46.40
2018-07-11T00:59:59.435Z,46.40
2018-07-11T01:01:04.576Z,46.40
2018-07-11T01:02:10.031Z,46.40
2018-07-11T01:03:15.454Z,46.40
2018-07-11T01:04:20.304Z,46.50
2018-07-11T01:05:25.725Z,46.40
2018-07-11T01:06:30.561Z,46.40
2018-07-11T01:07:35.477Z,46.40
2018-07-11T01:08:40.280Z,46.50
2018-07-11T01:09:45.679Z,46.40
2018-07-11T01:10:50.436Z,46.40
2018-07-11T01:11:55.953Z,46.40
2018-07-11T01:13:00.810Z,46.50
2018-07-11T01:14:05.669Z,46.50
2018-07-11T01:15:10.504Z,46.50
2018-07-11T01:16:15.343Z,46.50
2018-07-11T01:17:20.340Z,46.50
2018-07-11T01:18:25.182Z,46.50
2018-07-11T01:19:29.883Z,46.50
2018-07-11T01:20:34.585Z,46.50
2018-07-11T01:21:39.317Z,46.50
2018-07-11T01:22:44.192Z,47.10
2018-07-11T01:23:49.700Z,46.50
2018-07-11T01:24:54.461Z,46.50
2018-07-11T01:25:59.373Z,46.60
2018-07-11T01:27:04.179Z,46.60
2018-07-11T01:28:09.631Z,46.50
2018-07-11T01:29:15.058Z,46.60
2018-07-11T01:30:20.009Z,46.50
2018-07-11T01:31:25.061Z,46.50
2018-07-11T01:32:29.799Z,46.60
2018-07-11T01:33:34.525Z,46.60
2018-07-11T01:34:39.910Z,46.60
2018-07-11T01:35:44.784Z,46.60
2018-07-11T01:36:49.707Z,46.60
2018-07-11T01:37:55.124Z,46.60
2018-07-11T01:38:59.894Z,46.70
2018-07-11T01:40:05.256Z,46.70
2018-07-11T01:41:10.094Z,46.60
2018-07-11T01:42:15.498Z,46.60
2018-07-11T01:43:20.435Z,46.70
2018-07-11T01:44:25.311Z,46.60
2018-07-11T01:45:30.050Z,46.70
2018-07-11T01:46:34.950Z,46.60
2018-07-11T01:47:40.369Z,46.60
2018-07-11T01:48:45.812Z,46.70
2018-07-11T01:49:50.741Z,46.60
2018-07-11T01:50:55.707Z,46.70
2018-07-11T01:52:00.555Z,46.70
2018-07-11T01:53:05.404Z,46.80
2018-07-11T01:54:10.265Z,46.70
2018-07-11T01:55:15.088Z,46.70
2018-07-11T01:56:19.977Z,46.70
2018-07-11T01:57:25.186Z,46.80
2018-07-11T01:58:29.953Z,46.80
2018-07-11T01:59:34.846Z,46.70
2018-07-11T02:00:40.291Z,46.70
2018-07-11T02:01:45.711Z,46.70
2018-07-11T02:02:50.486Z,46.80
2018-07-11T02:03:55.278Z,47.40
2018-07-11T02:05:00.190Z,46.90
2018-07-11T02:06:04.938Z,46.90
2018-07-11T02:07:09.957Z,46.80
2018-07-11T02:08:14.719Z,46.80
2018-07-11T02:09:19.620Z,46.70
2018-07-11T02:10:25.080Z,46.80
2018-07-11T02:11:29.994Z,46.80
2018-07-11T02:12:35.221Z,46.90
2018-07-11T02:13:40.188Z,46.80
2018-07-11T02:14:45.141Z,46.80
2018-07-11T02:15:50.113Z,46.90
2018-07-11T02:16:54.891Z,46.80
2018-07-11T02:18:00.408Z,47.50
2018-07-11T02:19:05.409Z,46.80
2018-07-11T02:20:10.228Z,46.80
2018-07-11T02:21:15.178Z,46.80
2018-07-11T02:22:20.093Z,46.90
2018-07-11T02:23:24.882Z,46.90
2018-07-11T02:24:29.733Z,46.90
2018-07-11T02:25:34.716Z,46.90
2018-07-11T02:26:39.491Z,46.90
2018-07-11T02:27:44.220Z,46.90
2018-07-11T02:28:49.744Z,47.00
2018-07-11T02:29:54.618Z,46.90
2018-07-11T02:30:59.344Z,46.80
2018-07-11T02:32:04.256Z,46.80
2018-07-11T02:33:09.105Z,46.90
2018-07-11T02:34:13.978Z,47.00
2018-07-11T02:35:19.463Z,46.90
2018-07-11T02:36:24.188Z,46.90
2018-07-11T02:37:29.007Z,46.90
2018-07-11T02:38:34.024Z,47.00
2018-07-11T02:39:38.908Z,47.00
2018-07-11T02:40:43.831Z,47.00
2018-07-11T02:41:48.775Z,47.00
2018-07-11T02:42:53.642Z,47.00
2018-07-11T02:43:58.432Z,47.00
2018-07-11T02:45:03.948Z,47.00
2018-07-11T02:46:08.756Z,46.90
2018-07-11T02:47:14.232Z,47.00
2018-07-11T02:48:19.835Z,47.00
2018-07-11T02:49:24.751Z,47.10
2018-07-11T02:50:29.512Z,47.10
2018-07-11T02:51:35.026Z,47.00
2018-07-11T02:52:40.535Z,47.00
2018-07-11T02:53:45.392Z,47.00
2018-07-11T02:54:50.169Z,47.10
2018-07-11T02:55:54.921Z,47.10
2018-07-11T02:56:59.655Z,47.00
2018-07-11T02:58:04.546Z,47.00
2018-07-11T02:59:09.357Z,47.00
2018-07-11T03:00:14.795Z,47.10
2018-07-11T03:01:20.264Z,47.00
2018-07-11T03:02:25.056Z,47.10
2018-07-11T03:03:30.514Z,47.10
2018-07-11T03:04:36.016Z,47.00
2018-07-11T03:05:40.918Z,47.00
2018-07-11T03:06:45.684Z,47.10
2018-07-11T03:07:50.416Z,47.10
2018-07-11T03:08:55.419Z,47.00
2018-07-11T03:10:00.261Z,47.10
2018-07-11T03:11:05.224Z,47.00
2018-07-11T03:12:10.741Z,47.10
2018-07-11T03:13:15.700Z,47.20
2018-07-11T03:14:21.148Z,47.20
2018-07-11T03:15:25.889Z,47.20
2018-07-11T03:16:30.692Z,47.20
2018-07-11T03:17:36.077Z,47.20
2018-07-11T03:18:41.457Z,47.10
2018-07-11T03:19:46.400Z,47.10
2018-07-11T03:20:51.173Z,47.20
2018-07-11T03:21:56.113Z,47.20
2018-07-11T03:23:01.020Z,47.10
2018-07-11T03:24:05.919Z,47.10
2018-07-11T03:25:11.456Z,47.10
2018-07-11T03:26:16.237Z,47.20
2018-07-11T03:27:21.794Z,47.20
2018-07-11T03:28:26.684Z,47.20
2018-07-11T03:29:32.234Z,47.20
2018-07-11T03:30:37.833Z,47.20
2018-07-11T03:31:42.718Z,47.20
2018-07-11T03:32:48.189Z,47.20
2018-07-11T03:33:52.976Z,47.20
2018-07-11T03:34:57.863Z,47.20
2018-07-11T03:36:02.726Z,47.20
2018-07-11T03:37:07.633Z,47.20
2018-07-11T03:38:12.408Z,47.20
2018-07-11T03:39:17.278Z,47.20
2018-07-11T03:40:22.160Z,47.30
2018-07-11T03:41:27.062Z,47.20
2018-07-11T03:42:32.533Z,47.20
2018-07-11T03:43:38.008Z,47.20
2018-07-11T03:44:42.749Z,47.30
2018-07-11T03:45:47.496Z,47.20
2018-07-11T03:46:52.271Z,47.30
2018-07-11T03:47:57.074Z,47.90
2018-07-11T03:49:02.035Z,47.30
2018-07-11T03:50:06.884Z,47.30
2018-07-11T03:51:11.856Z,47.30
2018-07-11T03:52:17.260Z,47.30
2018-07-11T03:53:22.623Z,47.30
2018-07-11T03:54:28.077Z,47.30
2018-07-11T03:55:32.872Z,47.30
2018-07-11T03:56:38.301Z,47.30
2018-07-11T03:57:43.216Z,47.30
2018-07-11T03:58:48.615Z,47.30
2018-07-11T03:59:53.534Z,47.50
2018-07-11T04:00:58.457Z,48.00
2018-07-11T04:02:03.409Z,48.40
2018-07-11T04:03:08.148Z,48.50
2018-07-11T04:04:13.185Z,48.80
2018-07-11T04:05:17.947Z,49.10
2018-07-11T04:06:22.892Z,49.40
2018-07-11T04:07:28.417Z,49.60
2018-07-11T04:08:33.984Z,49.90
2018-07-11T04:09:39.107Z,50.10
2018-07-11T04:10:44.652Z,50.30
2018-07-11T04:11:50.142Z,50.50
2018-07-11T04:12:55.010Z,50.70
2018-07-11T04:13:59.910Z,50.90
2018-07-11T04:15:04.640Z,51.00
2018-07-11T04:16:09.553Z,51.20
2018-07-11T04:17:14.419Z,51.30
2018-07-11T04:18:19.294Z,51.20
2018-07-11T04:19:24.815Z,51.40
2018-07-11T04:20:30.289Z,51.40
2018-07-11T04:21:35.050Z,51.50
2018-07-11T04:22:40.516Z,51.70
2018-07-11T04:23:45.434Z,51.90
2018-07-11T04:24:50.300Z,52.00
2018-07-11T04:25:55.303Z,52.20
2018-07-11T04:27:00.370Z,52.20
2018-07-11T04:28:05.876Z,52.30
2018-07-11T04:29:10.809Z,52.40
2018-07-11T04:30:15.799Z,52.40
2018-07-11T04:31:21.250Z,52.40
2018-07-11T04:32:26.120Z,52.50
2018-07-11T04:33:31.094Z,52.50
2018-07-11T04:34:36.194Z,52.40
2018-07-11T04:35:40.936Z,52.50
2018-07-11T04:36:45.890Z,52.30
2018-07-11T04:37:51.358Z,52.20
2018-07-11T04:38:56.100Z,52.10
2018-07-11T04:40:01.666Z,52.00
2018-07-11T04:41:06.487Z,51.80
2018-07-11T04:42:11.284Z,51.60
2018-07-11T04:43:16.287Z,51.40
2018-07-11T04:44:21.313Z,51.10
2018-07-11T04:45:26.323Z,51.40
2018-07-11T04:46:31.898Z,51.90
2018-07-11T04:47:36.733Z,52.30
2018-07-11T04:48:41.939Z,52.50
2018-07-11T04:49:47.599Z,52.70
2018-07-11T04:50:52.730Z,52.90
2018-07-11T04:51:57.794Z,53.00
2018-07-11T04:53:03.355Z,53.20
2018-07-11T04:54:08.927Z,53.20
2018-07-11T04:55:13.734Z,53.10
2018-07-11T04:56:18.689Z,52.90
2018-07-11T04:57:23.706Z,52.60
2018-07-11T04:58:29.294Z,52.40
2018-07-11T04:59:34.885Z,52.20
2018-07-11T05:00:40.581Z,52.00
2018-07-11T05:01:45.538Z,51.80
2018-07-11T05:02:50.530Z,51.60
2018-07-11T05:03:55.517Z,51.50
2018-07-11T05:05:00.359Z,51.50
2018-07-11T05:06:05.275Z,51.40
2018-07-11T05:07:10.307Z,51.30
2018-07-11T05:08:15.240Z,51.30
2018-07-11T05:09:20.622Z,51.20
2018-07-11T05:10:25.729Z,51.30
2018-07-11T05:11:30.686Z,51.30
2018-07-11T05:12:35.690Z,51.40
2018-07-11T05:13:41.184Z,51.40
2018-07-11T05:14:46.177Z,51.50
2018-07-11T05:15:51.579Z,51.70
2018-07-11T05:16:56.605Z,51.80
2018-07-11T05:18:01.602Z,51.90
2018-07-11T05:19:08.043Z,51.90
2018-07-11T05:20:12.990Z,51.90
2018-07-11T05:21:23.833Z,51.90
2018-07-11T05:22:31.864Z,51.80
2018-07-11T05:23:42.960Z,51.80
2018-07-11T05:24:52.046Z,51.70
2018-07-11T05:26:02.451Z,51.70
2018-07-11T05:27:13.501Z,51.80
2018-07-11T05:28:26.972Z,51.90
2018-07-11T05:29:35.658Z,52.00
2018-07-11T05:30:41.104Z,52.50
2018-07-11T05:31:46.062Z,52.10
2018-07-11T05:32:52.846Z,52.10
2018-07-11T05:33:58.806Z,52.20
2018-07-11T05:35:03.802Z,52.20
2018-07-11T05:36:08.911Z,52.20
2018-07-11T05:37:13.687Z,52.10
2018-07-11T05:38:18.572Z,52.30
2018-07-11T05:39:24.478Z,52.30
2018-07-11T05:40:30.274Z,52.40
2018-07-11T05:41:35.951Z,52.50
2018-07-11T05:42:40.972Z,52.40
2018-07-11T05:43:46.009Z,52.60
2018-07-11T05:44:51.577Z,52.70
2018-07-11T05:45:57.425Z,52.60
2018-07-11T05:47:02.505Z,52.50
2018-07-11T05:48:07.336Z,52.70
2018-07-11T05:49:12.069Z,52.80
2018-07-11T05:50:17.118Z,52.90
2018-07-11T05:51:21.952Z,53.00
2018-07-11T05:52:27.539Z,53.10
2018-07-11T05:53:32.468Z,53.10
2018-07-11T05:54:37.288Z,53.10
2018-07-11T05:55:42.403Z,53.20
2018-07-11T05:56:47.288Z,53.20
2018-07-11T05:57:52.448Z,53.30
2018-07-11T05:58:57.812Z,53.10
2018-07-11T06:00:02.863Z,53.00
2018-07-11T06:01:07.489Z,52.90
2018-07-11T06:02:12.385Z,53.00
2018-07-11T06:03:17.354Z,53.20
2018-07-11T06:04:22.755Z,53.20
2018-07-11T06:05:27.769Z,53.30
2018-07-11T06:06:32.502Z,53.50
2018-07-11T06:07:37.240Z,53.70
2018-07-11T06:08:42.192Z,53.60
2018-07-11T06:09:46.993Z,53.50
2018-07-11T06:10:52.088Z,53.70
2018-07-11T06:11:57.020Z,53.80
2018-07-11T06:13:01.822Z,53.80
2018-07-11T06:14:07.334Z,53.80
2018-07-11T06:15:12.231Z,53.60
2018-07-11T06:16:17.005Z,53.70
2018-07-11T06:17:22.464Z,53.70
2018-07-11T06:18:27.403Z,53.60
2018-07-11T06:19:32.929Z,53.50
2018-07-11T06:20:37.927Z,53.60
2018-07-11T06:21:42.891Z,53.50
2018-07-11T06:22:48.372Z,53.50
2018-07-11T06:23:53.281Z,53.40
2018-07-11T06:24:58.248Z,53.30
2018-07-11T06:26:03.199Z,53.40
2018-07-11T06:27:08.213Z,53.40
2018-07-11T06:28:13.712Z,53.50
2018-07-11T06:29:18.677Z,53.40
2018-07-11T06:30:23.626Z,53.40
2018-07-11T06:31:28.600Z,53.30
2018-07-11T06:32:33.967Z,53.20
2018-07-11T06:33:38.969Z,53.40
2018-07-11T06:34:43.865Z,53.50
2018-07-11T06:35:48.769Z,53.60
2018-07-11T06:36:53.655Z,53.50
2018-07-11T06:37:58.474Z,53.60
2018-07-11T06:39:04.118Z,53.80
2018-07-11T06:40:09.060Z,53.80
2018-07-11T06:41:13.888Z,53.90
2018-07-11T06:42:18.926Z,54.30
2018-07-11T06:43:23.898Z,54.50
2018-07-11T06:44:28.725Z,54.60
2018-07-11T06:45:33.355Z,54.70
2018-07-11T06:46:38.805Z,54.90
2018-07-11T06:47:43.758Z,54.80
2018-07-11T06:48:48.634Z,54.70
2018-07-11T06:49:53.478Z,54.90
2018-07-11T06:50:58.400Z,55.00
2018-07-11T06:52:03.296Z,55.00
2018-07-11T06:53:08.266Z,55.10
2018-07-11T06:54:13.101Z,55.20
2018-07-11T06:55:18.593Z,55.20
2018-07-11T06:56:23.357Z,55.30
2018-07-11T06:57:28.412Z,55.40
2018-07-11T06:58:33.180Z,55.40
2018-07-11T06:59:37.953Z,55.40
2018-07-11T07:00:42.758Z,55.50
2018-07-11T07:01:47.759Z,55.50
2018-07-11T07:02:52.669Z,55.60
2018-07-11T07:03:57.661Z,55.60
2018-07-11T07:05:02.506Z,55.70
2018-07-11T07:06:07.420Z,55.70
2018-07-11T07:07:12.223Z,55.70
2018-07-11T07:08:17.101Z,55.80
2018-07-11T07:09:21.992Z,55.80
2018-07-11T07:10:26.919Z,55.80
2018-07-11T07:11:31.785Z,55.90
2018-07-11T07:12:37.258Z,55.90
2018-07-11T07:13:42.148Z,55.90
2018-07-11T07:14:46.877Z,55.90
2018-07-11T07:15:52.316Z,56.00
2018-07-11T07:16:57.214Z,56.00
2018-07-11T07:18:02.152Z,56.00
2018-07-11T07:19:06.943Z,56.00
2018-07-11T07:20:11.797Z,56.00
2018-07-11T07:21:16.524Z,56.00
2018-07-11T07:22:22.043Z,56.10
2018-07-11T07:23:26.921Z,56.10
2018-07-11T07:24:31.639Z,56.10
2018-07-11T07:25:37.097Z,56.10
2018-07-11T07:26:41.831Z,56.10
2018-07-11T07:27:46.774Z,56.10
2018-07-11T07:28:52.242Z,56.10
2018-07-11T07:29:57.193Z,56.00
2018-07-11T07:31:02.136Z,56.10
2018-07-11T07:32:07.065Z,56.00
2018-07-11T07:33:12.054Z,56.10
2018-07-11T07:34:17.541Z,56.00
2018-07-11T07:35:22.484Z,56.10
2018-07-11T07:36:28.062Z,56.20
2018-07-11T07:37:32.882Z,56.30
2018-07-11T07:38:37.662Z,56.20
2018-07-11T07:39:42.563Z,56.20
2018-07-11T07:40:47.512Z,56.20
2018-07-11T07:41:52.914Z,56.30
2018-07-11T07:42:58.367Z,56.30
2018-07-11T07:44:03.289Z,56.40
2018-07-11T07:45:08.273Z,56.50
2018-07-11T07:46:13.024Z,56.50
2018-07-11T07:47:18.528Z,56.50
2018-07-11T07:48:24.053Z,56.50
2018-07-11T07:49:28.988Z,56.50
2018-07-11T07:50:34.479Z,56.50
2018-07-11T07:51:39.988Z,56.40
2018-07-11T07:52:45.481Z,56.40
2018-07-11T07:53:50.234Z,56.40
2018-07-11T07:54:54.930Z,56.40
2018-07-11T07:55:59.688Z,56.40
2018-07-11T07:57:04.597Z,56.40
2018-07-11T07:58:09.466Z,56.60
2018-07-11T07:59:14.397Z,56.40
2018-07-11T08:00:19.339Z,56.40
2018-07-11T08:01:24.053Z,56.50
2018-07-11T08:02:28.855Z,56.50
2018-07-11T08:03:33.617Z,56.50
2018-07-11T08:04:39.030Z,56.50
2018-07-11T08:05:44.426Z,56.60
2018-07-11T08:06:49.369Z,56.60
2018-07-11T08:07:54.341Z,56.60
2018-07-11T08:08:59.300Z,56.60
2018-07-11T08:10:04.870Z,56.70
2018-07-11T08:11:09.888Z,56.70
2018-07-11T08:12:15.372Z,56.70
2018-07-11T08:13:20.139Z,56.70
2018-07-11T08:14:25.054Z,56.80
2018-07-11T08:15:30.031Z,56.80
2018-07-11T08:16:34.782Z,56.80
2018-07-11T08:17:39.649Z,56.80
2018-07-11T08:18:44.542Z,56.80
2018-07-11T08:19:49.442Z,56.90
2018-07-11T08:20:54.337Z,56.80
2018-07-11T08:21:59.222Z,56.90
2018-07-11T08:23:03.958Z,56.90
2018-07-11T08:24:09.412Z,57.00
2018-07-11T08:25:14.949Z,56.90
2018-07-11T08:26:20.517Z,56.90
2018-07-11T08:27:25.336Z,57.00
2018-07-11T08:28:30.299Z,57.00
2018-07-11T08:29:35.734Z,57.00
2018-07-11T08:30:41.229Z,57.00
2018-07-11T08:31:46.047Z,57.00
2018-07-11T08:32:51.429Z,57.00
2018-07-11T08:33:56.841Z,57.00
2018-07-11T08:35:01.714Z,57.00
2018-07-11T08:36:06.538Z,57.10
2018-07-11T08:37:11.401Z,57.10
2018-07-11T08:38:16.171Z,57.10
2018-07-11T08:39:21.000Z,57.10
2018-07-11T08:40:25.761Z,57.10
2018-07-11T08:41:30.507Z,57.20
2018-07-11T08:42:35.282Z,57.20
2018-07-11T08:43:40.177Z,57.20
2018-07-11T08:44:45.657Z,57.20
2018-07-11T08:45:50.486Z,57.20
2018-07-11T08:46:55.978Z,57.20
2018-07-11T08:48:00.813Z,57.20
2018-07-11T08:49:05.714Z,57.20
2018-07-11T08:50:10.659Z,57.20
2018-07-11T08:51:15.627Z,57.20
2018-07-11T08:52:20.420Z,57.20
2018-07-11T08:53:25.273Z,57.20
2018-07-11T08:54:30.081Z,57.20
2018-07-11T08:55:35.576Z,57.20
2018-07-11T08:56:40.472Z,57.20
2018-07-11T08:57:45.891Z,57.20
2018-07-11T08:58:51.316Z,57.20
2018-07-11T08:59:56.168Z,57.20
2018-07-11T09:01:01.660Z,57.30
2018-07-11T09:02:06.604Z,57.30
2018-07-11T09:03:11.476Z,57.30
2018-07-11T09:04:16.378Z,57.30
2018-07-11T09:05:21.789Z,57.30
2018-07-11T09:06:26.530Z,57.30
2018-07-11T09:07:31.219Z,57.30
2018-07-11T09:08:36.010Z,57.30
2018-07-11T09:09:40.865Z,57.30
2018-07-11T09:10:46.337Z,57.30
2018-07-11T09:11:51.129Z,57.30
2018-07-11T09:12:55.918Z,57.30
2018-07-11T09:14:00.807Z,57.20
2018-07-11T09:15:06.322Z,57.30
2018-07-11T09:16:11.788Z,57.30
2018-07-11T09:17:17.292Z,57.30
2018-07-11T09:18:22.172Z,57.30
2018-07-11T09:19:26.915Z,57.40
2018-07-11T09:20:32.337Z,57.40
2018-07-11T09:21:37.133Z,57.40
2018-07-11T09:22:42.025Z,57.50
2018-07-11T09:23:46.916Z,57.50
2018-07-11T09:24:51.877Z,57.50
2018-07-11T09:25:56.884Z,57.60
2018-07-11T09:27:01.824Z,57.60
2018-07-11T09:28:06.774Z,57.60
2018-07-11T09:29:12.205Z,57.60
2018-07-11T09:30:17.613Z,57.60
2018-07-11T09:31:23.023Z,57.60
2018-07-11T09:32:27.896Z,57.60
2018-07-11T09:33:32.841Z,57.60
2018-07-11T09:34:37.576Z,57.60
2018-07-11T09:35:42.502Z,57.60
2018-07-11T09:36:47.233Z,57.60
2018-07-11T09:37:52.029Z,57.60
2018-07-11T09:38:56.784Z,57.60
2018-07-11T09:40:01.756Z,57.70
2018-07-11T09:41:06.497Z,57.70
2018-07-11T09:42:11.457Z,57.60
2018-07-11T09:43:16.971Z,57.60
2018-07-11T09:44:21.884Z,57.70
2018-07-11T09:45:27.434Z,57.70
2018-07-11T09:46:32.267Z,57.70
2018-07-11T09:47:37.049Z,57.80
2018-07-11T09:48:41.902Z,58.50
2018-07-11T09:49:46.799Z,57.80
2018-07-11T09:50:51.668Z,57.80
2018-07-11T09:51:56.511Z,57.80
2018-07-11T09:53:01.885Z,57.80
2018-07-11T09:54:06.650Z,57.80
2018-07-11T09:55:11.579Z,57.80
2018-07-11T09:56:16.395Z,57.80
2018-07-11T09:57:21.238Z,57.90
2018-07-11T09:58:25.971Z,57.90
2018-07-11T09:59:31.060Z,57.90
2018-07-11T10:00:35.942Z,57.90
2018-07-11T10:01:40.757Z,57.90
2018-07-11T10:02:45.663Z,57.80
2018-07-11T10:03:51.097Z,57.90
2018-07-11T10:04:56.482Z,58.00
2018-07-11T10:06:01.366Z,58.00
2018-07-11T10:07:06.769Z,58.10
2018-07-11T10:08:12.209Z,58.10
2018-07-11T10:09:17.070Z,58.10
2018-07-11T10:10:21.960Z,58.10
2018-07-11T10:11:27.409Z,58.10
2018-07-11T10:12:32.224Z,58.00
2018-07-11T10:13:37.025Z,58.00
2018-07-11T10:14:42.505Z,58.00
2018-07-11T10:15:47.966Z,58.00
2018-07-11T10:16:53.391Z,58.00
2018-07-11T10:17:58.268Z,58.00
2018-07-11T10:19:03.726Z,57.90
2018-07-11T10:20:08.471Z,57.90
2018-07-11T10:21:13.257Z,57.90
2018-07-11T10:22:18.619Z,57.90
2018-07-11T10:23:23.518Z,57.90
2018-07-11T10:24:28.284Z,57.80
2018-07-11T10:25:33.174Z,57.90
2018-07-11T10:26:38.103Z,57.80
2018-07-11T10:27:42.847Z,57.90
2018-07-11T10:28:48.273Z,57.80
2018-07-11T10:29:52.968Z,57.80
2018-07-11T10:30:57.881Z,57.80
2018-07-11T10:32:03.379Z,57.80
2018-07-11T10:33:08.262Z,57.80
2018-07-11T10:34:13.065Z,57.80
2018-07-11T10:35:17.930Z,57.80
2018-07-11T10:36:22.874Z,57.90
2018-07-11T10:37:28.332Z,57.90
2018-07-11T10:38:33.240Z,57.90
2018-07-11T10:39:38.071Z,57.90
2018-07-11T10:40:42.921Z,57.90
2018-07-11T10:41:47.686Z,57.90
2018-07-11T10:42:52.573Z,57.90
2018-07-11T10:43:57.489Z,57.90
2018-07-11T10:45:03.090Z,57.90
2018-07-11T10:46:07.969Z,57.90
2018-07-11T10:47:12.849Z,57.80
2018-07-11T10:48:17.767Z,57.80
2018-07-11T10:49:23.228Z,57.80
2018-07-11T10:50:28.070Z,57.90
2018-07-11T10:51:33.522Z,57.80
2018-07-11T10:52:38.544Z,58.00
2018-07-11T10:53:43.462Z,58.00
2018-07-11T10:54:48.460Z,57.90
2018-07-11T10:55:53.906Z,58.00
2018-07-11T10:56:58.882Z,58.10
2018-07-11T10:58:03.786Z,58.10
2018-07-11T10:59:08.601Z,58.10
2018-07-11T11:00:24.031Z,58.20
2018-07-11T11:01:18.548Z,58.20
2018-07-11T11:02:23.406Z,58.10
2018-07-11T11:03:28.538Z,58.20
2018-07-11T11:04:33.708Z,58.10
2018-07-11T11:05:38.855Z,58.10
2018-07-11T11:06:43.878Z,58.10
2018-07-11T11:07:49.374Z,58.10
2018-07-11T11:08:54.918Z,58.20
2018-07-11T11:09:59.846Z,58.10
2018-07-11T11:11:04.643Z,58.10
2018-07-11T11:12:10.194Z,58.10
2018-07-11T11:13:15.096Z,58.00
2018-07-11T11:14:19.877Z,58.00
2018-07-11T11:15:24.764Z,58.00
2018-07-11T11:16:29.710Z,58.00
2018-07-11T11:17:34.429Z,58.00
2018-07-11T11:18:39.376Z,58.00
2018-07-11T11:19:44.255Z,58.00
2018-07-11T11:20:48.959Z,58.10
2018-07-11T11:21:53.956Z,58.00
2018-07-11T11:22:59.186Z,58.00
2018-07-11T11:24:04.612Z,58.10
2018-07-11T11:25:09.380Z,58.00
2018-07-11T11:26:14.855Z,58.00
2018-07-11T11:27:19.714Z,58.00
2018-07-11T11:28:25.147Z,58.00
2018-07-11T11:29:30.645Z,58.10
2018-07-11T11:30:35.584Z,58.20
2018-07-11T11:31:41.127Z,58.20
2018-07-11T11:32:46.593Z,58.30
2018-07-11T11:33:51.515Z,58.20
2018-07-11T11:34:56.424Z,58.30
2018-07-11T11:36:01.839Z,58.30
2018-07-11T11:37:07.363Z,58.30
2018-07-11T11:38:12.253Z,58.40
2018-07-11T11:39:17.743Z,58.30
2018-07-11T11:40:22.691Z,58.40
2018-07-11T11:41:27.634Z,58.40
2018-07-11T11:42:33.290Z,58.40
2018-07-11T11:43:37.948Z,58.40
2018-07-11T11:44:43.384Z,58.40
2018-07-11T11:45:48.483Z,58.40
2018-07-11T11:46:53.327Z,58.40
2018-07-11T11:47:58.236Z,58.50
2018-07-11T11:49:03.018Z,58.50
2018-07-11T11:50:07.911Z,58.50
2018-07-11T11:51:12.741Z,58.60
2018-07-11T11:52:17.639Z,58.50
2018-07-11T11:53:22.642Z,58.60
2018-07-11T11:54:27.572Z,58.50
2018-07-11T11:55:32.560Z,58.50
2018-07-11T11:56:37.498Z,58.60
2018-07-11T11:57:42.177Z,58.60
2018-07-11T11:58:47.087Z,58.60
2018-07-11T11:59:51.840Z,58.60
2018-07-11T12:00:56.762Z,58.60
2018-07-11T12:02:01.507Z,58.70
2018-07-11T12:03:06.435Z,58.70
2018-07-11T12:04:11.467Z,58.70
2018-07-11T12:05:16.472Z,58.70
2018-07-11T12:06:21.337Z,58.70
2018-07-11T12:07:26.724Z,58.70
2018-07-11T12:08:31.545Z,58.70
2018-07-11T12:09:36.410Z,58.80
2018-07-11T12:10:41.317Z,58.70
2018-07-11T12:11:46.056Z,58.80
2018-07-11T12:12:51.534Z,58.80
2018-07-11T12:13:56.255Z,58.80
2018-07-11T12:15:01.684Z,58.80
2018-07-11T12:16:06.621Z,58.80
2018-07-11T12:17:11.400Z,58.80
2018-07-11T12:18:16.837Z,58.80
2018-07-11T12:19:21.684Z,58.80
2018-07-11T12:20:26.566Z,58.90
2018-07-11T12:21:31.375Z,58.90
2018-07-11T12:22:36.193Z,58.80
2018-07-11T12:23:40.922Z,58.90
2018-07-11T12:24:46.347Z,58.90
2018-07-11T12:25:51.752Z,58.90
2018-07-11T12:26:56.617Z,59.00
2018-07-11T12:28:01.413Z,59.00
2018-07-11T12:29:06.289Z,59.10
2018-07-11T12:30:11.797Z,59.10
2018-07-11T12:31:16.582Z,59.00
2018-07-11T12:32:21.391Z,59.00
2018-07-11T12:33:26.815Z,59.10
2018-07-11T12:34:31.618Z,59.10
2018-07-11T12:35:37.006Z,59.10
2018-07-11T12:36:42.367Z,59.10
2018-07-11T12:37:47.773Z,59.00
2018-07-11T12:38:53.221Z,59.00
2018-07-11T12:39:58.008Z,59.10
2018-07-11T12:41:02.940Z,59.00
2018-07-11T12:42:07.841Z,59.00
2018-07-11T12:43:13.335Z,58.90
2018-07-11T12:44:18.274Z,59.00
2018-07-11T12:45:23.219Z,59.00
2018-07-11T12:46:28.098Z,59.00
2018-07-11T12:47:33.127Z,59.00
2018-07-11T12:48:37.872Z,59.10
2018-07-11T12:49:42.810Z,59.10
2018-07-11T12:50:47.849Z,59.10
2018-07-11T12:51:52.799Z,59.20
2018-07-11T12:52:57.584Z,59.20
2018-07-11T12:54:02.463Z,59.20
2018-07-11T12:55:07.382Z,59.10
2018-07-11T12:56:12.305Z,59.20
2018-07-11T12:57:17.796Z,59.20
2018-07-11T12:58:22.760Z,59.20
2018-07-11T12:59:27.661Z,59.10
2018-07-11T13:00:32.596Z,59.20
2018-07-11T13:01:37.386Z,59.20
2018-07-11T13:02:42.865Z,59.10
2018-07-11T13:03:47.649Z,59.10
2018-07-11T13:04:52.588Z,59.10
2018-07-11T13:05:57.564Z,59.10
2018-07-11T13:07:02.445Z,59.10
2018-07-11T13:08:07.280Z,59.20
2018-07-11T13:09:12.840Z,59.00
2018-07-11T13:10:18.224Z,59.20
2018-07-11T13:11:23.726Z,59.10
2018-07-11T13:12:28.455Z,59.30
2018-07-11T13:13:33.343Z,59.20
2018-07-11T13:14:38.230Z,59.20
2018-07-11T13:15:43.193Z,59.30
2018-07-11T13:16:48.718Z,59.20
2018-07-11T13:17:53.725Z,59.20
2018-07-11T13:18:59.197Z,59.30
2018-07-11T13:20:03.937Z,59.30
2018-07-11T13:21:08.934Z,59.40
2018-07-11T13:22:13.840Z,59.30
2018-07-11T13:23:18.585Z,59.30
2018-07-11T13:24:23.330Z,59.20
2018-07-11T13:25:28.112Z,59.20
2018-07-11T13:26:32.947Z,59.20
2018-07-11T13:27:38.032Z,59.20
2018-07-11T13:28:42.890Z,59.30
2018-07-11T13:29:47.695Z,59.30
2018-07-11T13:30:52.615Z,59.30
2018-07-11T13:31:58.049Z,59.30
2018-07-11T13:33:02.828Z,59.20
2018-07-11T13:34:07.751Z,59.20
2018-07-11T13:35:12.492Z,59.20
2018-07-11T13:36:17.413Z,59.30
2018-07-11T13:37:22.359Z,59.10
2018-07-11T13:38:27.153Z,59.20
2018-07-11T13:39:32.116Z,59.20
2018-07-11T13:40:37.107Z,59.20
2018-07-11T13:41:42.612Z,59.20
2018-07-11T13:42:47.475Z,59.30
2018-07-11T13:43:52.918Z,59.20
2018-07-11T13:44:58.426Z,59.20
2018-07-11T13:46:03.188Z,59.20
2018-07-11T13:47:08.256Z,59.30
2018-07-11T13:48:13.021Z,59.20
2018-07-11T13:49:17.902Z,59.20
2018-07-11T13:50:22.751Z,59.20
2018-07-11T13:51:27.678Z,59.20
2018-07-11T13:52:32.654Z,59.30
2018-07-11T13:53:37.456Z,59.30
2018-07-11T13:54:42.440Z,59.30
2018-07-11T13:55:47.213Z,59.30
2018-07-11T13:56:52.924Z,59.40
2018-07-11T13:57:57.920Z,59.30